Time;durP1;ratioP1;P1;durP2;ratioP2;P2;SDS_P1;SDS_P2;PMS_P1;PMS_P2;Temp;Humidity;BMP_temperature;BMP_pressure;BME280_temperature;BME280_humidity;BME280_pressure;Samples;Min_cycle;Max_cycle;Signal;HPM_P1;HPM_P2
2022/04/16 00:00:52;;;;;;;23.25;17.85;;;7.10;99.90;;;;;;5014719;28;20053;-55
2022/04/16 00:03:22;;;;;;;22.23;18.00;;;7.00;99.90;;;;;;5021884;28;21099;-55
2022/04/16 00:05:51;;;;;;;22.52;18.02;;;7.00;99.90;;;;;;5017506;28;20137;-55
2022/04/16 00:08:22;;;;;;;23.65;20.05;;;7.00;99.90;;;;;;5002763;28;20053;-56
2022/04/16 00:10:50;;;;;;;26.77;20.13;;;7.00;99.90;;;;;;5014891;28;20563;-56
2022/04/16 00:13:18;;;;;;;24.35;19.83;;;7.00;99.90;;;;;;5022506;28;20106;-54
2022/04/16 00:15:49;;;;;;;26.33;20.30;;;6.90;99.90;;;;;;5020189;28;20140;-54
2022/04/16 00:18:16;;;;;;;26.55;20.85;;;6.90;99.90;;;;;;5021656;28;20095;-55
2022/04/16 00:20:44;;;;;;;26.45;20.90;;;6.80;99.90;;;;;;5020123;28;20088;-54
2022/04/16 00:23:10;;;;;;;27.60;22.25;;;6.80;99.90;;;;;;5018795;28;20041;-55
2022/04/16 00:25:36;;;;;;;26.40;20.73;;;6.80;99.90;;;;;;5020393;28;20045;-56
2022/04/16 00:28:04;;;;;;;25.23;20.30;;;6.80;99.90;;;;;;5004699;28;20960;-55
2022/04/16 00:30:37;;;;;;;28.83;21.08;;;6.70;99.90;;;;;;5018360;28;20391;-56
2022/04/16 00:33:12;;;;;;;26.88;20.48;;;6.70;99.90;;;;;;5020892;28;20073;-56
2022/04/16 00:35:42;;;;;;;26.55;22.52;;;6.70;99.90;;;;;;5015645;28;20053;-54
2022/04/16 00:38:08;;;;;;;26.90;22.42;;;6.60;99.90;;;;;;5021579;28;20148;-55
2022/04/16 00:40:35;;;;;;;30.35;22.55;;;6.60;99.90;;;;;;5017550;28;20050;-56
2022/04/16 00:43:02;;;;;;;27.35;22.75;;;6.60;99.90;;;;;;4972639;28;20111;-54
2022/04/16 00:45:29;;;;;;;29.80;23.02;;;6.50;99.90;;;;;;5020897;28;20057;-56
2022/04/16 00:47:57;;;;;;;29.40;24.05;;;6.60;99.90;;;;;;5003003;28;20049;-54
2022/04/16 00:50:23;;;;;;;27.45;23.33;;;6.50;99.90;;;;;;5019223;28;20053;-56
2022/04/16 00:52:49;;;;;;;32.53;24.10;;;6.50;99.90;;;;;;4971689;28;20164;-55
2022/04/16 00:55:16;;;;;;;26.95;24.02;;;6.50;99.90;;;;;;5019428;28;20064;-56
2022/04/16 00:57:43;;;;;;;27.42;24.52;;;6.50;99.90;;;;;;5007982;28;20058;-55
2022/04/16 01:00:12;;;;;;;28.88;23.85;;;6.50;99.90;;;;;;5014755;28;20041;-56
2022/04/16 01:02:39;;;;;;;31.10;23.95;;;6.50;99.90;;;;;;5020579;28;20080;-55
2022/04/16 01:05:06;;;;;;;32.08;25.60;;;6.50;99.90;;;;;;5020035;28;20753;-56
2022/04/16 01:07:32;;;;;;;31.92;24.00;;;6.50;99.90;;;;;;5019532;28;20063;-56
2022/04/16 01:09:59;;;;;;;31.55;25.23;;;6.40;99.90;;;;;;5021688;28;20057;-55
2022/04/16 01:12:26;;;;;;;33.22;26.48;;;6.40;99.90;;;;;;5005916;28;20045;-53
2022/04/16 01:14:53;;;;;;;29.88;26.20;;;6.40;99.90;;;;;;5018877;28;20042;-55
2022/04/16 01:17:19;;;;;;;33.13;27.17;;;6.50;99.90;;;;;;5003432;28;20062;-54
2022/04/16 01:19:45;;;;;;;31.75;25.48;;;6.40;99.90;;;;;;5003555;28;20049;-54
2022/04/16 01:22:13;;;;;;;32.42;26.58;;;6.40;99.90;;;;;;5001905;28;20045;-53
2022/04/16 01:24:43;;;;;;;33.15;27.38;;;6.40;99.90;;;;;;4986406;28;20045;-55
2022/04/16 01:27:10;;;;;;;31.73;26.70;;;6.40;99.90;;;;;;5019369;28;20121;-55
2022/04/16 01:29:37;;;;;;;33.17;26.38;;;6.40;99.90;;;;;;5022185;28;20504;-53
2022/04/16 01:32:03;;;;;;;31.92;27.55;;;6.40;99.90;;;;;;5017561;28;20104;-55
2022/04/16 01:34:30;;;;;;;34.88;27.80;;;6.40;99.90;;;;;;5020359;28;20572;-53
2022/04/16 01:37:01;;;;;;;32.22;25.30;;;6.40;99.90;;;;;;5018355;28;20041;-53
2022/04/16 01:39:27;;;;;;;36.40;28.65;;;6.30;99.90;;;;;;5018681;28;20519;-54
2022/04/16 01:41:53;;;;;;;30.98;27.20;;;6.30;99.90;;;;;;4999431;28;20063;-55
2022/04/16 01:44:20;;;;;;;33.72;26.92;;;6.30;99.90;;;;;;5001740;28;20049;-53
2022/04/16 01:46:46;;;;;;;30.95;25.42;;;6.30;99.90;;;;;;5020087;28;20148;-54
2022/04/16 01:49:12;;;;;;;35.92;28.40;;;6.30;99.90;;;;;;5024415;28;20051;-53
2022/04/16 01:51:38;;;;;;;37.75;28.23;;;6.20;99.90;;;;;;5023601;28;20053;-54
2022/04/16 01:54:05;;;;;;;35.70;26.50;;;6.20;99.90;;;;;;5021195;28;20045;-55
2022/04/16 01:56:31;;;;;;;35.63;28.00;;;6.20;99.90;;;;;;5024294;28;20849;-55
2022/04/16 01:58:57;;;;;;;32.90;28.23;;;6.20;99.90;;;;;;5024538;28;20073;-55
2022/04/16 02:01:23;;;;;;;35.22;28.45;;;6.20;99.90;;;;;;5021748;28;20085;-54
2022/04/16 02:03:49;;;;;;;33.25;26.70;;;6.20;99.90;;;;;;5022511;28;20042;-54
2022/04/16 02:06:17;;;;;;;30.83;27.15;;;6.20;99.90;;;;;;5017761;28;20068;-54
2022/04/16 02:08:44;;;;;;;32.70;26.92;;;6.20;99.90;;;;;;5023262;28;20262;-56
2022/04/16 02:11:10;;;;;;;37.72;28.17;;;6.20;99.90;;;;;;5007099;28;20052;-54
2022/04/16 02:13:36;;;;;;;38.08;28.65;;;6.10;99.90;;;;;;5021782;28;20826;-55
2022/04/16 02:16:02;;;;;;;37.28;27.67;;;6.10;99.90;;;;;;5022092;28;20128;-55
2022/04/16 02:18:28;;;;;;;35.58;27.98;;;6.00;99.90;;;;;;5018849;28;20599;-55
2022/04/16 02:20:54;;;;;;;34.38;27.42;;;6.00;99.90;;;;;;5021582;28;20099;-55
2022/04/16 02:23:20;;;;;;;37.42;28.08;;;6.00;99.90;;;;;;5023194;28;20054;-55
2022/04/16 02:25:46;;;;;;;37.92;28.98;;;6.00;99.90;;;;;;5022557;28;20422;-56
2022/04/16 02:28:12;;;;;;;34.70;27.05;;;5.90;99.90;;;;;;5027242;28;20156;-55
2022/04/16 02:30:40;;;;;;;36.83;29.55;;;5.90;99.90;;;;;;5027923;28;20497;-54
2022/04/16 02:33:06;;;;;;;36.22;28.35;;;5.90;99.90;;;;;;5019446;28;20051;-54
2022/04/16 02:35:32;;;;;;;36.05;28.77;;;5.90;99.90;;;;;;5024873;28;20046;-55
2022/04/16 02:37:58;;;;;;;38.30;30.05;;;5.80;99.90;;;;;;5020778;28;20057;-55
2022/04/16 02:40:24;;;;;;;36.70;28.63;;;5.80;99.90;;;;;;5023916;28;20037;-55
2022/04/16 02:42:51;;;;;;;36.25;28.23;;;5.80;99.90;;;;;;5021731;28;20503;-55
2022/04/16 02:48:04;;;;;;;41.75;31.55;;;5.80;99.90;;;;;;5022322;28;20764;-55
2022/04/16 02:50:31;;;;;;;38.85;30.60;;;5.70;99.90;;;;;;4990106;28;20049;-54
2022/04/16 02:52:58;;;;;;;38.28;31.23;;;5.70;99.90;;;;;;5017495;28;20516;-55
2022/04/16 02:55:24;;;;;;;45.10;32.00;;;5.70;99.90;;;;;;5035102;28;20123;-55
2022/04/16 02:57:50;;;;;;;42.47;31.42;;;5.70;99.90;;;;;;5023231;28;20148;-52
2022/04/16 03:00:20;;;;;;;40.70;30.88;;;5.70;99.90;;;;;;5022416;28;20045;-55
2022/04/16 03:02:47;;;;;;;43.63;33.00;;;5.70;99.90;;;;;;5021327;28;20085;-53
2022/04/16 03:05:13;;;;;;;41.53;32.50;;;5.70;99.90;;;;;;5014396;28;20136;-55
2022/04/16 03:07:40;;;;;;;46.53;32.92;;;5.70;99.90;;;;;;5004189;28;20050;-55
2022/04/16 03:10:08;;;;;;;40.42;31.88;;;5.70;99.90;;;;;;5018499;28;20592;-56
2022/04/16 03:12:51;;;;;;;43.65;32.35;;;5.70;99.90;;;;;;4998741;28;20044;-55
2022/04/16 03:18:05;;;;;;;42.67;32.60;;;5.60;99.90;;;;;;5018992;28;20136;-55
2022/04/16 03:20:31;;;;;;;47.20;33.22;;;5.60;99.90;;;;;;5022418;28;20041;-56
2022/04/16 03:22:59;;;;;;;52.50;35.70;;;5.60;99.90;;;;;;5004559;28;20053;-55
2022/04/16 03:25:27;;;;;;;46.17;32.55;;;5.60;99.90;;;;;;5018029;28;20137;-55
2022/04/16 03:27:53;;;;;;;46.10;33.35;;;5.60;99.90;;;;;;5017023;28;20054;-54
2022/04/16 03:30:19;;;;;;;45.72;33.55;;;5.60;99.90;;;;;;5021986;28;20049;-54
2022/04/16 03:32:49;;;;;;;47.33;35.30;;;5.60;99.90;;;;;;5004392;28;20049;-55
2022/04/16 03:35:19;;;;;;;48.08;34.38;;;5.60;99.90;;;;;;5032336;28;20119;-55
2022/04/16 03:37:45;;;;;;;49.25;35.22;;;5.60;99.90;;;;;;5015321;28;20050;-55
2022/04/16 03:40:15;;;;;;;48.67;36.10;;;5.60;99.90;;;;;;5022434;28;20056;-55
2022/04/16 03:42:45;;;;;;;52.30;36.83;;;5.60;99.90;;;;;;4984544;28;20167;-55
2022/04/16 03:45:21;;;;;;;51.72;36.88;;;5.60;99.90;;;;;;5020735;28;20037;-55
2022/04/16 03:47:50;;;;;;;53.50;37.35;;;5.60;99.90;;;;;;5023211;28;20053;-54
2022/04/16 03:50:17;;;;;;;53.97;37.05;;;5.70;99.90;;;;;;5020302;28;20049;-54
2022/04/16 03:52:45;;;;;;;55.03;38.17;;;5.70;99.90;;;;;;5020699;28;20063;-56
2022/04/16 04:00:49;;;;;;;48.53;36.65;;;5.90;99.90;;;;;;5015963;28;20057;-53
2022/04/16 04:03:16;;;;;;;46.03;33.33;;;6.10;99.90;;;;;;5020464;28;20091;-54
2022/04/16 04:05:48;;;;;;;44.28;35.88;;;6.20;99.90;;;;;;5006924;28;20048;-55
2022/04/16 04:08:14;;;;;;;;;;;6.30;99.90;;;;;;5021493;28;20052;-55
2022/04/16 04:10:40;;;;;;;41.67;33.95;;;6.40;99.90;;;;;;5017136;28;19921;-54
2022/04/16 04:13:06;;;;;;;43.30;32.55;;;6.50;99.90;;;;;;5020092;28;20690;-53
2022/04/16 04:15:33;;;;;;;38.70;31.10;;;6.60;99.90;;;;;;5014936;28;20053;-55
2022/04/16 04:18:00;;;;;;;42.05;32.13;;;6.70;99.90;;;;;;5018394;28;20492;-54
2022/04/16 04:20:27;;;;;;;36.85;31.50;;;6.90;99.90;;;;;;5014226;28;20048;-53
2022/04/16 04:22:54;;;;;;;37.20;30.20;;;6.90;99.90;;;;;;5019803;28;20103;-55
2022/04/16 04:25:20;;;;;;;35.30;29.60;;;7.00;99.90;;;;;;5002343;28;20139;-54
2022/04/16 04:27:47;;;;;;;35.00;28.42;;;7.10;99.90;;;;;;5005063;28;20775;-54
2022/04/16 04:30:13;;;;;;;36.92;29.15;;;7.10;99.90;;;;;;5023127;28;20033;-54
2022/04/16 04:32:40;;;;;;;32.30;28.15;;;7.20;99.90;;;;;;5015337;28;20493;-54
2022/04/16 04:35:07;;;;;;;35.15;27.10;;;7.20;99.90;;;;;;5012902;28;20887;-54
2022/04/16 04:37:33;;;;;;;33.42;28.95;;;7.30;99.90;;;;;;5002708;28;20086;-54
2022/04/16 04:39:59;;;;;;;31.13;27.10;;;7.30;99.90;;;;;;5021910;28;20104;-53
2022/04/16 04:42:30;;;;;;;32.42;27.30;;;7.30;99.90;;;;;;5019977;28;20072;-54
2022/04/16 04:44:57;;;;;;;29.77;25.13;;;7.40;99.90;;;;;;5019084;28;20057;-55
2022/04/16 04:47:24;;;;;;;34.72;26.98;;;7.40;99.90;;;;;;5014614;28;20497;-53
2022/04/16 04:49:51;;;;;;;33.03;27.67;;;7.40;99.90;;;;;;5015447;28;20126;-55
2022/04/16 04:52:26;;;;;;;34.83;28.42;;;7.40;99.90;;;;;;5020134;28;20060;-55
2022/04/16 04:54:53;;;;;;;34.50;28.35;;;7.40;99.90;;;;;;5019517;28;20053;-53
2022/04/16 04:57:19;;;;;;;32.63;28.92;;;7.40;99.90;;;;;;5018989;28;20085;-54
2022/04/16 04:59:46;;;;;;;34.17;29.50;;;7.50;99.90;;;;;;5018461;28;20072;-53
2022/04/16 05:02:12;;;;;;;33.53;26.13;;;7.50;99.90;;;;;;5001953;28;20053;-54
2022/04/16 05:04:38;;;;;;;27.25;19.58;;;7.50;99.90;;;;;;5019482;28;20041;-54
2022/04/16 05:07:05;;;;;;;29.17;23.65;;;7.50;99.90;;;;;;5020605;28;20041;-55
2022/04/16 05:09:31;;;;;;;29.52;25.70;;;7.60;99.90;;;;;;5020711;28;20056;-55
2022/04/16 05:11:57;;;;;;;33.58;26.30;;;7.60;99.90;;;;;;5021065;28;20056;-56
2022/04/16 05:14:24;;;;;;;28.20;23.55;;;7.60;99.90;;;;;;5014976;28;20170;-55
2022/04/16 05:16:50;;;;;;;26.40;21.88;;;7.60;99.90;;;;;;5016580;28;20049;-55
2022/04/16 05:19:16;;;;;;;25.92;22.08;;;7.60;99.90;;;;;;5017000;28;20053;-54
2022/04/16 05:21:43;;;;;;;27.77;23.02;;;7.70;99.90;;;;;;5027241;28;20060;-55
2022/04/16 05:24:09;;;;;;;28.23;22.38;;;7.70;99.90;;;;;;5026199;28;20041;-54
2022/04/16 05:26:38;;;;;;;26.98;21.85;;;7.70;99.90;;;;;;5024693;28;20509;-55
2022/04/16 05:29:05;;;;;;;25.05;20.77;;;7.70;99.90;;;;;;5023906;28;20045;-54
2022/04/16 05:31:32;;;;;;;27.45;21.80;;;7.80;99.90;;;;;;5040259;28;20061;-55
2022/04/16 05:36:43;;;;;;;27.35;19.20;;;7.90;99.90;;;;;;5021704;28;20048;-54
2022/04/16 05:39:09;;;;;;;25.60;19.73;;;7.90;99.90;;;;;;4989456;28;20053;-56
2022/04/16 05:41:39;;;;;;;21.33;17.33;;;8.00;99.90;;;;;;5013396;28;20053;-56
2022/04/16 05:44:05;;;;;;;23.70;17.98;;;8.00;99.90;;;;;;5006561;28;20053;-54
2022/04/16 05:46:32;;;;;;;22.08;18.38;;;8.10;99.90;;;;;;5005556;28;20041;-55
2022/04/16 05:48:58;;;;;;;24.55;19.02;;;8.10;99.90;;;;;;5022896;28;20053;-54
2022/04/16 05:51:25;;;;;;;23.30;17.85;;;8.20;99.90;;;;;;5024861;28;20054;-56
2022/04/16 05:53:52;;;;;;;23.92;19.02;;;8.20;99.90;;;;;;5026366;28;20089;-55
2022/04/16 05:56:20;;;;;;;24.10;18.40;;;8.30;99.90;;;;;;5019496;28;20141;-55
2022/04/16 05:58:46;;;;;;;23.92;18.73;;;8.30;99.90;;;;;;5013045;28;20185;-55
2022/04/16 06:01:13;;;;;;;22.73;17.55;;;8.30;99.90;;;;;;5017233;28;20579;-52
2022/04/16 06:03:40;;;;;;;25.23;19.30;;;8.30;99.90;;;;;;5013939;28;20128;-55
2022/04/16 06:06:07;;;;;;;21.67;18.13;;;8.40;99.90;;;;;;5026076;28;20073;-55
2022/04/16 06:08:33;;;;;;;21.25;16.98;;;8.40;99.90;;;;;;5008735;28;20053;-54
2022/04/16 06:10:59;;;;;;;23.80;15.50;;;8.40;99.90;;;;;;5024873;28;20049;-54
2022/04/16 06:13:25;;;;;;;19.17;15.32;;;8.40;99.90;;;;;;5026539;28;20060;-55
2022/04/16 06:15:51;;;;;;;21.33;16.02;;;8.40;99.90;;;;;;5024310;28;20136;-54
2022/04/16 06:18:17;;;;;;;19.60;15.68;;;8.40;99.90;;;;;;5024430;28;20365;-56
2022/04/16 06:20:43;;;;;;;22.10;17.20;;;8.40;99.90;;;;;;5006796;28;20060;-55
2022/04/16 06:23:09;;;;;;;25.02;18.58;;;8.40;99.90;;;;;;5018870;28;20041;-56
2022/04/16 06:25:36;;;;;;;21.95;17.58;;;8.40;99.90;;;;;;5027230;28;20056;-54
2022/04/16 06:28:03;;;;;;;30.48;23.23;;;8.50;99.90;;;;;;5030022;28;20064;-54
2022/04/16 06:30:29;;;;;;;19.20;13.68;;;8.40;99.90;;;;;;5023554;28;20473;-54
2022/04/16 06:32:55;;;;;;;23.70;17.08;;;8.50;99.90;;;;;;5023345;28;20037;-52
2022/04/16 06:35:21;;;;;;;18.05;15.13;;;8.50;99.90;;;;;;5025654;28;20046;-55
2022/04/16 06:37:47;;;;;;;21.52;15.32;;;8.40;99.90;;;;;;5022360;28;20132;-55
2022/04/16 06:40:14;;;;;;;20.88;14.75;;;8.50;99.90;;;;;;5022767;28;20111;-54
2022/04/16 06:42:41;;;;;;;20.00;15.13;;;8.50;99.90;;;;;;5032561;28;20041;-55
2022/04/16 06:45:10;;;;;;;19.90;15.45;;;8.50;99.90;;;;;;5012457;28;20045;-54
2022/04/16 06:47:37;;;;;;;19.48;15.57;;;8.70;99.90;;;;;;5010619;28;20135;-58
2022/04/16 06:50:05;;;;;;;16.70;13.57;;;8.80;99.90;;;;;;5011005;28;20148;-58
2022/04/16 06:52:31;;;;;;;18.90;14.20;;;8.90;99.90;;;;;;4988307;28;20099;-57
2022/04/16 06:54:58;;;;;;;19.52;15.35;;;9.10;99.90;;;;;;5012982;28;20076;-57
2022/04/16 06:57:25;;;;;;;18.33;14.30;;;9.40;99.90;;;;;;5018646;28;20050;-56
2022/04/16 06:59:51;;;;;;;16.60;13.55;;;9.60;99.90;;;;;;5020211;28;20053;-56
2022/04/16 07:02:18;;;;;;;14.27;10.05;;;9.90;99.90;;;;;;5018871;28;20056;-54
2022/04/16 07:04:44;;;;;;;19.75;15.73;;;10.00;99.90;;;;;;5009696;28;20145;-56
2022/04/16 07:07:11;;;;;;;17.60;13.85;;;9.90;99.90;;;;;;5007375;28;20139;-55
2022/04/16 07:09:40;;;;;;;14.35;12.55;;;10.00;99.90;;;;;;5004904;28;20179;-55
2022/04/16 07:12:08;;;;;;;17.45;14.10;;;10.20;99.90;;;;;;5019331;28;20079;-57
2022/04/16 07:14:34;;;;;;;18.08;13.20;;;10.50;99.90;;;;;;5020814;28;20199;-58
2022/04/16 07:17:01;;;;;;;17.98;14.43;;;11.10;99.90;;;;;;5007043;28;20053;-57
2022/04/16 07:19:29;;;;;;;16.52;13.32;;;11.30;99.90;;;;;;5019343;28;20062;-55
2022/04/16 07:21:55;;;;;;;13.80;12.10;;;11.50;99.90;;;;;;5013601;28;20057;-56
2022/04/16 07:24:23;;;;;;;14.38;11.77;;;11.80;99.90;;;;;;5005888;28;20046;-56
2022/04/16 07:26:55;;;;;;;14.60;11.70;;;12.10;99.90;;;;;;5003993;28;20038;-58
2022/04/16 07:29:25;;;;;;;15.73;12.05;;;12.10;99.90;;;;;;5005855;28;20053;-58
2022/04/16 07:31:52;;;;;;;14.98;11.70;;;12.60;99.90;;;;;;5020081;28;20639;-57
2022/04/16 07:34:22;;;;;;;14.18;11.82;;;12.70;99.90;;;;;;5017342;28;20057;-58
2022/04/16 07:36:49;;;;;;;12.98;11.57;;;13.00;99.90;;;;;;5002963;28;20064;-58
2022/04/16 07:39:15;;;;;;;12.20;10.02;;;13.00;99.90;;;;;;5003821;28;20050;-59
2022/04/16 07:41:41;;;;;;;13.02;10.68;;;13.30;99.90;;;;;;5005954;28;20042;-58
2022/04/16 07:44:08;;;;;;;14.02;12.57;;;13.30;99.90;;;;;;5002322;28;20107;-55
2022/04/16 07:46:34;;;;;;;12.90;10.27;;;13.50;99.90;;;;;;5014512;28;21036;-55
2022/04/16 07:49:01;;;;;;;15.13;10.50;;;13.90;99.90;;;;;;5019890;28;20672;-55
2022/04/16 07:51:27;;;;;;;10.00;8.10;;;13.90;99.90;;;;;;5016507;28;20081;-55
2022/04/16 07:53:55;;;;;;;11.68;9.18;;;14.10;99.90;;;;;;5010836;28;20049;-55
2022/04/16 07:56:22;;;;;;;13.82;10.20;;;14.00;99.90;;;;;;5010558;28;20798;-51
2022/04/16 07:58:50;;;;;;;12.02;8.95;;;14.10;99.90;;;;;;5009658;28;20132;-49
2022/04/16 08:01:17;;;;;;;11.13;9.02;;;14.10;99.90;;;;;;5002651;28;20468;-53
2022/04/16 08:03:43;;;;;;;9.80;8.73;;;14.10;99.90;;;;;;5010046;28;20046;-54
2022/04/16 08:06:09;;;;;;;12.50;8.07;;;14.10;99.90;;;;;;5004769;28;20153;-57
2022/04/16 08:08:35;;;;;;;9.77;8.35;;;14.20;99.90;;;;;;5005533;28;20115;-56
2022/04/16 08:11:01;;;;;;;9.32;7.10;;;14.20;99.90;;;;;;5011397;28;20093;-57
2022/04/16 08:13:27;;;;;;;8.90;7.53;;;14.20;99.90;;;;;;5010462;28;20117;-57
2022/04/16 08:15:54;;;;;;;9.63;7.35;;;14.70;99.90;;;;;;5012994;28;20116;-57
2022/04/16 08:18:20;;;;;;;8.98;5.90;;;14.90;99.90;;;;;;5015910;28;20053;-57
2022/04/16 08:20:46;;;;;;;8.45;5.97;;;14.90;99.90;;;;;;5018444;28;20438;-56
2022/04/16 08:23:13;;;;;;;8.68;5.22;;;15.10;99.90;;;;;;5012101;28;20057;-57
2022/04/16 08:28:06;;;;;;;6.35;4.40;;;14.70;69.30;;;;;;5013795;28;20879;-56
2022/04/16 08:30:32;;;;;;;7.13;4.57;;;15.00;61.40;;;;;;5010939;28;20160;-56
2022/04/16 08:32:59;;;;;;;7.88;4.53;;;14.80;63.00;;;;;;5011916;28;20056;-56
2022/04/16 08:35:25;;;;;;;6.15;3.90;;;14.80;65.60;;;;;;5011117;28;20053;-57
2022/04/16 08:37:52;;;;;;;6.05;3.63;;;15.10;61.60;;;;;;5013163;28;20064;-55
2022/04/16 08:40:19;;;;;;;8.15;5.32;;;15.50;62.20;;;;;;4998103;28;20046;-55
2022/04/16 08:42:48;;;;;;;6.28;2.80;;;15.80;58.40;;;;;;5011746;28;20121;-55
2022/04/16 08:45:14;;;;;;;5.32;3.63;;;15.70;56.20;;;;;;4991418;28;20056;-55
2022/04/16 08:47:41;;;;;;;5.25;3.20;;;15.40;56.70;;;;;;4993174;28;20080;-54
2022/04/16 08:50:10;;;;;;;4.93;3.40;;;15.20;55.30;;;;;;5017508;28;20049;-53
2022/04/16 08:52:37;;;;;;;5.40;3.15;;;15.50;55.30;;;;;;5018635;28;20474;-54
2022/04/16 08:55:06;;;;;;;7.55;5.35;;;15.20;52.70;;;;;;5006498;28;20086;-54
2022/04/16 08:57:33;;;;;;;7.30;3.28;;;15.60;54.00;;;;;;5019911;28;20062;-54
2022/04/16 08:59:59;;;;;;;3.72;2.35;;;16.00;52.90;;;;;;5017174;28;20057;-54
2022/04/16 09:02:27;;;;;;;7.30;4.75;;;15.90;53.10;;;;;;5013453;28;20049;-55
2022/04/16 09:05:04;;;;;;;7.07;2.85;;;16.00;51.00;;;;;;5014591;28;20046;-55
2022/04/16 09:07:31;;;;;;;4.90;2.80;;;16.40;50.40;;;;;;5017842;28;20053;-55
2022/04/16 09:10:08;;;;;;;6.72;3.95;;;16.60;51.70;;;;;;5009492;28;20042;-55
2022/04/16 09:12:38;;;;;;;5.65;3.38;;;16.50;50.00;;;;;;4993571;28;20421;-55
2022/04/16 09:15:06;;;;;;;6.05;2.53;;;16.90;49.10;;;;;;5020875;28;20568;-54
2022/04/16 09:17:33;;;;;;;5.50;2.88;;;17.30;49.70;;;;;;5011506;28;20050;-54
2022/04/16 09:19:59;;;;;;;3.63;1.83;;;17.00;49.30;;;;;;4997625;28;20042;-55
2022/04/16 09:22:36;;;;;;;4.03;2.67;;;17.10;45.30;;;;;;5015844;28;20497;-55
2022/04/16 09:25:04;;;;;;;3.45;2.13;;;17.00;44.50;;;;;;5020066;28;20102;-55
2022/04/16 09:27:41;;;;;;;6.57;3.15;;;16.80;46.40;;;;;;5009495;28;20057;-56
2022/04/16 09:30:07;;;;;;;5.05;3.05;;;17.00;47.00;;;;;;5009104;28;20448;-56
2022/04/16 09:32:43;;;;;;;2.90;1.77;;;17.40;47.10;;;;;;5016962;28;20042;-56
2022/04/16 09:35:24;;;;;;;4.35;2.40;;;17.60;48.20;;;;;;5014238;28;20107;-56
2022/04/16 09:37:54;;;;;;;6.53;2.35;;;17.60;47.30;;;;;;5018494;28;20041;-56
2022/04/16 09:40:21;;;;;;;5.13;2.92;;;17.90;46.90;;;;;;5008535;28;20460;-55
2022/04/16 09:42:59;;;;;;;3.95;1.83;;;17.90;45.70;;;;;;5008265;28;20049;-56
2022/04/16 09:45:25;;;;;;;5.90;2.35;;;17.60;43.20;;;;;;5001654;28;20038;-56
2022/04/16 09:47:52;;;;;;;4.40;3.03;;;17.50;44.00;;;;;;5012494;28;20123;-55
2022/04/16 09:50:22;;;;;;;5.47;2.08;;;17.30;43.70;;;;;;5009665;28;20425;-56
2022/04/16 09:52:57;;;;;;;5.03;3.17;;;17.60;44.40;;;;;;5022107;28;20512;-56
2022/04/16 09:55:24;;;;;;;3.53;1.70;;;17.80;43.50;;;;;;5023594;28;20044;-56
2022/04/16 09:58:01;;;;;;;5.85;3.55;;;18.10;45.20;;;;;;5019068;28;20050;-56
2022/04/16 10:00:29;;;;;;;3.97;2.03;;;18.00;42.40;;;;;;5007696;28;20579;-56
2022/04/16 10:02:55;;;;;;;4.15;1.85;;;17.90;40.90;;;;;;5013052;28;20048;-56
2022/04/16 10:05:22;;;;;;;1.80;1.30;;;18.30;41.80;;;;;;4995646;28;20057;-55
2022/04/16 10:07:52;;;;;;;1.92;0.98;;;18.30;39.50;;;;;;5009429;28;20053;-54
2022/04/16 10:10:30;;;;;;;3.17;1.10;;;18.20;39.80;;;;;;5002789;28;20508;-56
2022/04/16 10:13:07;;;;;;;2.70;1.20;;;18.70;38.90;;;;;;5012863;28;20404;-56
2022/04/16 10:15:55;;;;;;;6.47;1.50;;;18.90;39.00;;;;;;5015723;28;20076;-56
2022/04/16 10:18:22;;;;;;;2.10;1.05;;;18.50;36.10;;;;;;5016076;28;20624;-55
2022/04/16 10:20:53;;;;;;;2.17;1.05;;;18.10;38.40;;;;;;5025462;28;20097;-55
2022/04/16 10:23:30;;;;;;;3.28;1.05;;;18.60;39.00;;;;;;5012624;28;20046;-57
2022/04/16 10:26:13;;;;;;;3.85;2.53;;;18.80;38.30;;;;;;5018585;28;20197;-56
2022/04/16 10:28:54;;;;;;;2.38;1.10;;;18.90;37.70;;;;;;5012378;28;20049;-54
2022/04/16 10:31:29;;;;;;;4.13;1.05;;;19.00;34.60;;;;;;4987528;28;20057;-54
2022/04/16 10:34:01;;;;;;;4.00;1.30;;;19.30;36.60;;;;;;5009147;28;20102;-55
2022/04/16 10:36:40;;;;;;;5.13;1.25;;;19.00;34.90;;;;;;5005383;28;20054;-55
2022/04/16 10:39:18;;;;;;;2.92;0.90;;;18.90;36.00;;;;;;5019922;28;20045;-55
2022/04/16 10:41:58;;;;;;;9.35;7.75;;;18.90;35.20;;;;;;5016316;28;20073;-55
2022/04/16 10:44:27;;;;;;;1.58;1.33;;;19.00;36.50;;;;;;5012956;28;20433;-55
2022/04/16 10:46:54;;;;;;;3.90;1.52;;;19.10;36.20;;;;;;4995936;28;20038;-54
2022/04/16 10:49:23;;;;;;;4.82;3.92;;;19.20;35.30;;;;;;5012906;28;20179;-56
2022/04/16 10:51:50;;;;;;;2.97;0.85;;;19.20;33.60;;;;;;4976219;28;20049;-56
2022/04/16 10:54:32;;;;;;;2.90;0.90;;;19.10;34.00;;;;;;4992876;28;20489;-55
2022/04/16 10:56:59;;;;;;;2.38;1.60;;;18.70;32.90;;;;;;5011280;28;20806;-56
2022/04/16 10:59:38;;;;;;;2.20;1.40;;;18.80;33.80;;;;;;5007468;28;20536;-55
2022/04/16 11:02:21;;;;;;;1.58;0.70;;;19.00;32.40;;;;;;5018214;28;20041;-57
2022/04/16 11:05:02;;;;;;;1.65;0.73;;;19.10;32.00;;;;;;5012447;28;20046;-58
2022/04/16 11:07:29;;;;;;;4.05;0.80;;;19.20;30.90;;;;;;4990601;28;20084;-57
2022/04/16 11:09:56;;;;;;;1.88;0.80;;;19.20;31.90;;;;;;5006935;28;20481;-57
2022/04/16 11:12:23;;;;;;;4.07;1.08;;;19.40;33.60;;;;;;5007689;28;20473;-55
2022/04/16 11:14:54;;;;;;;4.47;1.30;;;19.50;35.40;;;;;;5005255;28;20052;-55
2022/04/16 11:17:20;;;;;;;3.03;1.02;;;19.40;34.00;;;;;;5007470;28;20069;-55
2022/04/16 11:20:00;;;;;;;4.00;1.25;;;19.10;33.60;;;;;;4987812;28;20053;-55
2022/04/16 11:22:26;;;;;;;1.55;0.90;;;19.00;33.10;;;;;;5000196;28;20132;-55
2022/04/16 11:24:52;;;;;;;2.58;1.02;;;19.00;32.20;;;;;;4984054;28;20044;-54
2022/04/16 11:36:04;;;;;;;3.00;1.25;;;18.70;33.90;;;;;;5007691;28;20559;-54
2022/04/16 11:38:33;;;;;;;2.15;1.05;;;19.30;32.90;;;;;;5017879;28;20052;-55
2022/04/16 11:41:01;;;;;;;2.83;1.25;;;19.10;32.60;;;;;;5004616;28;20138;-55
2022/04/16 11:43:28;;;;;;;1.90;1.08;;;19.10;33.10;;;;;;5007655;28;20553;-54
2022/04/16 11:45:57;;;;;;;2.05;1.00;;;19.20;34.30;;;;;;5007946;28;20054;-57
2022/04/16 11:48:24;;;;;;;2.33;1.05;;;19.10;34.80;;;;;;5011081;28;20077;-56
2022/04/16 11:50:50;;;;;;;2.95;1.00;;;18.70;32.80;;;;;;5014266;28;20053;-57
2022/04/16 11:53:17;;;;;;;4.30;1.33;;;19.00;32.60;;;;;;5018564;28;20096;-56
2022/04/16 11:55:47;;;;;;;2.72;0.82;;;19.40;32.60;;;;;;5017803;28;20416;-54
2022/04/16 11:58:14;;;;;;;3.17;0.82;;;19.50;33.20;;;;;;5012323;28;20057;-55
2022/04/16 12:00:51;;;;;;;1.90;0.93;;;19.60;31.50;;;;;;4997520;28;20048;-57
2022/04/16 12:03:17;;;;;;;1.98;1.00;;;19.70;31.70;;;;;;5010401;28;20045;-56
2022/04/16 12:05:44;;;;;;;5.68;1.20;;;19.30;31.70;;;;;;5011433;28;20041;-56
2022/04/16 12:08:11;;;;;;;2.20;0.90;;;19.30;31.10;;;;;;5009557;28;20053;-53
2022/04/16 12:10:39;;;;;;;4.03;0.80;;;19.50;31.50;;;;;;5002342;28;20041;-57
2022/04/16 12:13:09;;;;;;;4.30;0.95;;;19.40;32.70;;;;;;5021722;28;20568;-56
2022/04/16 12:15:45;;;;;;;4.25;1.35;;;19.30;31.80;;;;;;4985057;28;20116;-54
2022/04/16 12:18:16;;;;;;;2.70;0.98;;;19.50;31.70;;;;;;5011064;28;20107;-53
2022/04/16 12:20:46;;;;;;;2.97;0.90;;;19.70;31.70;;;;;;5012442;28;20520;-53
2022/04/16 12:23:23;;;;;;;1.15;0.80;;;19.80;31.30;;;;;;5005471;28;20069;-56
2022/04/16 12:25:50;;;;;;;3.88;1.10;;;20.20;31.20;;;;;;5021938;28;20122;-53
2022/04/16 12:28:16;;;;;;;2.60;1.05;;;20.10;30.40;;;;;;5023010;28;20053;-56
2022/04/16 12:30:50;;;;;;;1.30;0.90;;;20.60;31.00;;;;;;4989296;28;20124;-56
2022/04/16 12:33:16;;;;;;;2.47;1.00;;;20.50;29.80;;;;;;5021827;28;20049;-56
2022/04/16 12:35:47;;;;;;;3.60;1.27;;;20.50;31.30;;;;;;5011258;28;20048;-52
2022/04/16 12:38:17;;;;;;;2.17;0.80;;;20.20;32.60;;;;;;5003496;28;20068;-56
2022/04/16 12:40:44;;;;;;;3.47;1.13;;;20.10;33.50;;;;;;5019109;28;20092;-56
2022/04/16 12:43:11;;;;;;;2.70;1.35;;;20.20;32.00;;;;;;5021089;28;20354;-56
2022/04/16 12:45:37;;;;;;;1.58;0.90;;;20.40;33.70;;;;;;5014018;28;20081;-56
2022/04/16 12:48:04;;;;;;;2.38;1.40;;;20.40;32.20;;;;;;4995342;28;20505;-57
2022/04/16 12:50:31;;;;;;;4.07;1.10;;;20.70;32.30;;;;;;4988221;28;20077;-53
2022/04/16 12:52:59;;;;;;;2.35;1.17;;;20.10;31.20;;;;;;5008893;28;20103;-54
2022/04/16 12:55:26;;;;;;;2.85;0.80;;;20.40;30.80;;;;;;5017115;28;20111;-56
2022/04/16 12:57:52;;;;;;;2.10;0.90;;;20.30;29.80;;;;;;5020637;28;20057;-54
2022/04/16 13:00:18;;;;;;;3.03;0.90;;;20.40;29.80;;;;;;5009241;28;20058;-56
2022/04/16 13:02:46;;;;;;;4.20;1.00;;;20.50;30.30;;;;;;5006759;28;20046;-56
2022/04/16 13:05:13;;;;;;;1.50;0.70;;;20.50;30.70;;;;;;5013569;28;20089;-54
2022/04/16 13:07:40;;;;;;;3.58;1.23;;;20.70;30.40;;;;;;5000779;28;20034;-56
2022/04/16 13:10:08;;;;;;;2.50;1.02;;;21.00;31.20;;;;;;5015137;28;20046;-55